createdAt,value
2018-05-24T00:00:42.727Z,13.93
2018-05-24T00:03:10.186Z,14.93
2018-05-24T00:05:37.623Z,15.97
2018-05-24T00:08:05.079Z,13.97
2018-05-24T00:10:32.606Z,14.27
2018-05-24T00:13:00.026Z,12.70
2018-05-24T00:15:27.478Z,13.47
2018-05-24T00:17:54.938Z,13.10
2018-05-24T00:20:22.376Z,11.87
2018-05-24T00:22:49.819Z,12.20
2018-05-24T00:25:17.257Z,11.30
2018-05-24T00:27:44.720Z,11.93
2018-05-24T00:30:12.161Z,11.23
2018-05-24T00:32:40.398Z,12.43
2018-05-24T00:35:07.829Z,10.90
2018-05-24T00:37:35.282Z,11.33
2018-05-24T00:40:02.719Z,10.43
2018-05-24T00:42:30.176Z,10.63
2018-05-24T00:44:57.617Z,10.10
2018-05-24T00:47:25.042Z,11.17
2018-05-24T00:49:52.470Z,10.80
2018-05-24T00:52:19.953Z,11.73
2018-05-24T00:54:47.553Z,11.17
2018-05-24T00:57:14.862Z,11.80
2018-05-24T00:59:42.303Z,11.70
2018-05-24T01:02:09.733Z,12.03
2018-05-24T01:04:37.201Z,12.90
2018-05-24T01:07:04.644Z,11.37
2018-05-24T01:09:32.095Z,12.27
2018-05-24T01:11:59.510Z,13.67
2018-05-24T01:14:26.958Z,14.20
2018-05-24T01:16:54.420Z,14.10
2018-05-24T01:19:21.861Z,13.07
2018-05-24T01:21:49.320Z,11.50
2018-05-24T01:24:16.764Z,11.77
2018-05-24T01:26:44.205Z,11.30
2018-05-24T01:29:11.637Z,10.40
2018-05-24T01:31:39.094Z,11.07
2018-05-24T01:34:06.522Z,10.60
2018-05-24T01:36:45.782Z,11.13
2018-05-24T01:39:13.986Z,10.83
2018-05-24T01:41:41.437Z,10.63
2018-05-24T01:44:08.870Z,11.87
2018-05-24T01:46:36.307Z,11.33
2018-05-24T01:49:03.832Z,10.90
2018-05-24T01:51:31.194Z,10.73
2018-05-24T01:53:58.645Z,11.60
2018-05-24T01:56:26.111Z,10.73
2018-05-24T01:58:53.542Z,10.70
2018-05-24T02:01:20.979Z,11.97
2018-05-24T02:03:49.190Z,10.50
2018-05-24T02:06:16.674Z,10.70
2018-05-24T02:08:44.111Z,11.57
2018-05-24T02:11:11.546Z,10.97
2018-05-24T02:13:39.001Z,11.10
2018-05-24T02:16:06.430Z,10.87
2018-05-24T02:18:33.874Z,11.70
2018-05-24T02:21:01.312Z,12.33
2018-05-24T02:23:28.814Z,11.03
2018-05-24T02:25:56.247Z,11.17
2018-05-24T02:28:23.683Z,9.70
2018-05-24T02:30:51.130Z,10.90
2018-05-24T02:33:18.573Z,10.13
2018-05-24T02:35:46.070Z,9.90
2018-05-24T02:38:13.466Z,11.77
2018-05-24T02:40:40.918Z,10.80
2018-05-24T02:43:08.334Z,10.87
2018-05-24T02:45:35.794Z,10.70
2018-05-24T02:48:03.230Z,10.57
2018-05-24T02:50:30.687Z,11.10
2018-05-24T02:52:58.135Z,9.90
2018-05-24T02:55:25.572Z,10.20
2018-05-24T02:57:53.013Z,10.83
2018-05-24T03:00:20.454Z,10.70
2018-05-24T03:02:47.918Z,10.17
2018-05-24T03:05:15.400Z,9.87
2018-05-24T03:07:42.866Z,10.73
2018-05-24T03:10:10.286Z,11.57
2018-05-24T03:12:37.735Z,11.33
2018-05-24T03:15:05.176Z,12.40
2018-05-24T03:17:32.643Z,11.87
2018-05-24T03:20:00.126Z,11.33
2018-05-24T03:22:27.586Z,11.10
2018-05-24T03:24:55.014Z,10.53
2018-05-24T03:27:22.442Z,11.83
2018-05-24T03:29:49.890Z,12.00
2018-05-24T03:32:17.323Z,11.40
2018-05-24T03:34:44.767Z,12.23
2018-05-24T03:37:12.206Z,11.73
2018-05-24T03:39:39.638Z,12.23
2018-05-24T03:42:07.083Z,12.80
2018-05-24T03:44:34.523Z,13.00
2018-05-24T03:47:01.980Z,11.60
2018-05-24T03:49:29.421Z,12.00
2018-05-24T03:51:56.884Z,13.63
2018-05-24T03:54:25.068Z,13.47
2018-05-24T03:56:52.513Z,13.60
2018-05-24T04:02:44.488Z,14.33
2018-05-24T04:05:11.952Z,14.63
2018-05-24T04:07:39.399Z,14.57
2018-05-24T04:10:07.727Z,13.10
2018-05-24T04:12:35.231Z,13.07
2018-05-24T04:15:02.715Z,13.73
2018-05-24T04:17:30.188Z,12.97
2018-05-24T04:19:57.666Z,13.03
2018-05-24T04:22:25.903Z,12.77
2018-05-24T04:24:53.420Z,13.60
2018-05-24T04:27:20.867Z,13.20
2018-05-24T04:29:48.351Z,12.63
2018-05-24T04:32:15.867Z,12.53
2018-05-24T04:34:43.370Z,12.20
2018-05-24T04:37:10.881Z,12.17
2018-05-24T04:39:38.497Z,12.50
2018-05-24T04:42:05.966Z,12.20
2018-05-24T04:44:33.606Z,12.90
2018-05-24T04:47:01.052Z,11.43
2018-05-24T04:49:28.684Z,10.87
2018-05-24T04:51:56.900Z,12.00
2018-05-24T04:54:24.469Z,11.67
2018-05-24T04:56:51.964Z,11.73
2018-05-24T04:59:19.494Z,12.03
2018-05-24T05:01:47.017Z,11.57
2018-05-24T05:04:14.642Z,13.30
2018-05-24T05:06:42.296Z,13.00
2018-05-24T05:09:09.787Z,12.53
2018-05-24T05:11:37.289Z,12.87
2018-05-24T05:14:04.762Z,12.83
2018-05-24T05:16:32.232Z,13.30
2018-05-24T05:18:59.721Z,14.20
2018-05-24T05:21:27.244Z,12.13
2018-05-24T05:23:54.715Z,12.10
2018-05-24T05:26:22.217Z,13.50
2018-05-24T05:28:49.733Z,14.57
2018-05-24T05:31:17.220Z,11.60
2018-05-24T05:33:44.769Z,11.60
2018-05-24T05:36:13.050Z,11.90
2018-05-24T05:38:40.684Z,11.40
2018-05-24T05:41:08.193Z,12.00
2018-05-24T05:43:35.641Z,12.43
2018-05-24T05:46:03.127Z,17.33
2018-05-24T05:48:30.640Z,11.57
2018-05-24T05:50:58.594Z,12.03
2018-05-24T05:53:26.064Z,11.10
2018-05-24T05:55:53.524Z,9.80
2018-05-24T05:58:21.084Z,10.23
2018-05-24T06:00:49.014Z,9.70
2018-05-24T06:03:16.475Z,9.30
2018-05-24T06:05:46.372Z,8.50
2018-05-24T06:08:13.964Z,9.10
2018-05-24T06:10:42.423Z,9.80
2018-05-24T06:13:10.223Z,9.53
2018-05-24T06:15:38.533Z,8.30
2018-05-24T06:18:06.247Z,9.93
2018-05-24T06:20:33.745Z,9.80
2018-05-24T06:23:02.291Z,10.40
2018-05-24T06:25:29.760Z,11.03
2018-05-24T06:27:57.308Z,12.27
2018-05-24T06:30:24.833Z,10.93
2018-05-24T06:32:52.312Z,11.77
2018-05-24T06:35:20.131Z,11.43
2018-05-24T06:37:48.486Z,14.53
2018-05-24T06:40:17.282Z,14.97
2018-05-24T06:42:47.358Z,13.10
2018-05-24T06:45:18.055Z,12.93
2018-05-24T06:47:50.057Z,15.37
2018-05-24T06:50:20.192Z,14.93
2018-05-24T06:52:49.374Z,17.20
2018-05-24T06:55:23.332Z,19.43
2018-05-24T06:58:05.088Z,17.57
2018-05-24T07:01:05.016Z,18.00
2018-05-24T07:03:33.414Z,18.77
2018-05-24T07:06:02.677Z,19.10
2018-05-24T07:08:31.280Z,21.93
2018-05-24T07:11:00.379Z,24.50
2018-05-24T07:13:28.898Z,22.93
2018-05-24T07:15:56.589Z,22.30
2018-05-24T07:18:25.148Z,23.57
2018-05-24T07:20:53.125Z,24.83
2018-05-24T07:23:24.661Z,30.30
2018-05-24T07:25:53.459Z,25.87
2018-05-24T07:28:21.272Z,26.47
2018-05-24T07:30:49.131Z,27.60
2018-05-24T07:33:17.576Z,25.57
2018-05-24T07:35:45.184Z,26.70
2018-05-24T07:38:13.881Z,31.00
2018-05-24T07:40:45.353Z,30.47
2018-05-24T07:43:13.176Z,30.93
2018-05-24T07:45:41.052Z,31.27
2018-05-24T07:48:08.764Z,26.57
2018-05-24T07:50:36.471Z,24.30
2018-05-24T07:53:06.016Z,22.87
2018-05-24T07:55:34.149Z,23.97
2018-05-24T07:58:01.603Z,24.80
2018-05-24T08:00:29.072Z,25.03
2018-05-24T08:02:56.782Z,23.70
2018-05-24T08:05:25.264Z,28.67
2018-05-24T08:07:52.771Z,24.30
2018-05-24T08:10:22.007Z,24.63
2018-05-24T08:12:49.732Z,29.10
2018-05-24T08:15:17.306Z,22.13
2018-05-24T08:17:46.163Z,21.50
2018-05-24T08:20:13.684Z,21.30
2018-05-24T08:22:41.643Z,21.47
2018-05-24T08:25:10.157Z,22.53
2018-05-24T08:27:37.947Z,23.43
2018-05-24T08:30:07.785Z,21.37
2018-05-24T08:32:36.287Z,23.80
2018-05-24T08:35:04.990Z,22.27
2018-05-24T08:37:35.117Z,22.20
2018-05-24T08:40:23.963Z,23.27
2018-05-24T08:42:57.381Z,24.27
2018-05-24T08:45:31.748Z,35.23
2018-05-24T08:48:05.965Z,29.37
2018-05-24T08:50:41.787Z,26.37
2018-05-24T08:53:12.073Z,26.93
2018-05-24T08:55:57.738Z,25.10
2018-05-24T08:58:31.250Z,26.80
2018-05-24T09:01:07.015Z,27.90
2018-05-24T09:03:39.877Z,26.77
2018-05-24T09:06:11.100Z,26.50
2018-05-24T09:08:42.700Z,24.73
2018-05-24T09:11:13.967Z,28.40
2018-05-24T09:13:43.351Z,24.17
2018-05-24T09:16:11.100Z,26.53
2018-05-24T09:18:40.009Z,24.27
2018-05-24T09:21:08.291Z,24.00
2018-05-24T09:23:36.720Z,25.60
2018-05-24T09:26:04.373Z,26.03
2018-05-24T09:28:32.434Z,25.10
2018-05-24T09:31:01.803Z,23.63
2018-05-24T09:33:29.467Z,27.50
2018-05-24T09:35:58.438Z,25.43
2018-05-24T09:38:26.323Z,23.70
2018-05-24T09:40:54.172Z,23.57
2018-05-24T09:43:22.073Z,25.33
2018-05-24T09:45:50.005Z,22.23
2018-05-24T09:48:17.866Z,24.13
2018-05-24T09:50:45.724Z,23.83
2018-05-24T09:53:14.074Z,24.50
2018-05-24T09:55:41.791Z,23.03
2018-05-24T09:58:10.129Z,23.30
2018-05-24T10:00:38.203Z,25.10
2018-05-24T10:03:09.607Z,26.00
2018-05-24T10:05:52.709Z,25.80
2018-05-24T10:08:29.140Z,24.83
2018-05-24T10:11:07.796Z,27.50
2018-05-24T10:13:45.444Z,25.73
2018-05-24T10:16:17.780Z,26.03
2018-05-24T10:18:50.227Z,26.67
2018-05-24T10:21:23.912Z,27.57
2018-05-24T10:23:59.463Z,24.40
2018-05-24T10:26:31.098Z,25.90
2018-05-24T10:29:02.399Z,25.87
2018-05-24T10:31:37.269Z,26.10
2018-05-24T10:34:18.718Z,26.03
2018-05-24T10:36:56.335Z,26.03
2018-05-24T10:39:41.943Z,27.43
2018-05-24T10:42:15.324Z,25.90
2018-05-24T10:44:53.981Z,25.77
2018-05-24T10:47:23.025Z,26.47
2018-05-24T10:49:53.084Z,24.53
2018-05-24T10:52:24.394Z,26.93
2018-05-24T10:54:52.395Z,26.30
2018-05-24T10:57:20.072Z,24.70
2018-05-24T10:59:47.966Z,25.93
2018-05-24T11:02:15.486Z,23.70
2018-05-24T11:04:43.086Z,26.33
2018-05-24T11:07:10.612Z,25.87
2018-05-24T11:09:38.157Z,26.70
2018-05-24T11:12:06.257Z,26.70
2018-05-24T11:14:34.705Z,31.00
2018-05-24T11:17:02.648Z,25.27
2018-05-24T11:19:30.377Z,27.80
2018-05-24T11:21:57.946Z,26.53
2018-05-24T11:24:25.508Z,26.90
2018-05-24T11:26:53.840Z,25.40
2018-05-24T11:29:21.369Z,24.90
2018-05-24T11:31:49.021Z,24.13
2018-05-24T11:34:16.567Z,25.00
2018-05-24T11:36:45.284Z,24.10
2018-05-24T11:39:13.220Z,32.17
2018-05-24T11:41:40.925Z,26.40
2018-05-24T11:44:09.419Z,23.33
2018-05-24T11:46:38.076Z,22.97
2018-05-24T11:49:06.343Z,24.50
2018-05-24T11:54:05.639Z,24.00
2018-05-24T11:56:33.152Z,20.70
2018-05-24T11:59:00.639Z,24.30
2018-05-24T12:01:28.935Z,23.50
2018-05-24T12:03:56.462Z,21.67
2018-05-24T12:06:24.884Z,23.13
2018-05-24T12:18:09.133Z,25.60
2018-05-24T12:20:41.545Z,24.50
2018-05-24T12:23:09.320Z,23.97
2018-05-24T12:25:36.886Z,24.40
2018-05-24T12:28:05.389Z,23.87
2018-05-24T12:30:33.524Z,22.30
2018-05-24T12:33:01.139Z,20.77
2018-05-24T12:35:30.729Z,21.10
2018-05-24T12:38:02.505Z,22.73
2018-05-24T12:40:33.436Z,19.37
2018-05-24T12:52:31.553Z,17.73
2018-05-24T12:54:59.344Z,17.80
2018-05-24T12:57:32.831Z,26.23
2018-05-24T13:00:04.629Z,16.80
2018-05-24T13:02:34.683Z,16.07
2018-05-24T13:05:07.994Z,16.60
2018-05-24T13:07:46.488Z,16.00
2018-05-24T13:10:22.571Z,16.20
2018-05-24T13:12:51.591Z,18.10
2018-05-24T13:15:19.450Z,17.73
2018-05-24T13:17:47.234Z,15.40
2018-05-24T13:23:04.720Z,16.30
2018-05-24T13:28:22.980Z,17.20
2018-05-24T13:33:40.531Z,18.40
2018-05-24T13:36:08.638Z,17.93
2018-05-24T13:38:36.478Z,17.30
2018-05-24T13:47:48.044Z,20.23
2018-05-24T13:50:16.615Z,19.67
2018-05-24T13:52:45.148Z,20.33
2018-05-24T13:55:13.724Z,17.33
2018-05-24T14:00:43.962Z,16.60
2018-05-24T14:03:17.543Z,17.80
2018-05-24T14:05:46.203Z,18.00
2018-05-24T14:08:14.688Z,17.40
2018-05-24T14:10:48.246Z,19.07
2018-05-24T14:13:36.999Z,17.00
2018-05-24T14:16:07.961Z,17.77
2018-05-24T14:21:15.953Z,16.37
2018-05-24T14:23:43.867Z,17.00
2018-05-24T14:26:11.460Z,17.53
2018-05-24T14:28:39.206Z,17.40
2018-05-24T14:31:08.125Z,17.70
2018-05-24T14:38:53.342Z,16.03
2018-05-24T14:44:10.671Z,15.80
2018-05-24T14:49:25.707Z,14.70
2018-05-24T14:52:06.838Z,11.13
2018-05-24T14:57:33.430Z,12.80
2018-05-24T15:00:16.165Z,15.50
2018-05-24T15:02:46.752Z,14.07
2018-05-24T15:05:25.695Z,16.30
2018-05-24T15:10:33.438Z,17.50
2018-05-24T15:13:00.890Z,16.40
2018-05-24T15:15:29.109Z,17.07
2018-05-24T15:17:56.550Z,18.37
2018-05-24T15:20:23.988Z,17.00
2018-05-24T15:22:51.431Z,17.10
2018-05-24T15:25:18.894Z,19.60
2018-05-24T15:27:46.344Z,18.00
2018-05-24T15:30:13.862Z,18.03
2018-05-24T15:32:41.297Z,19.03
2018-05-24T15:35:08.743Z,18.63
2018-05-24T15:37:36.189Z,18.47
2018-05-24T15:40:03.622Z,17.40
2018-05-24T15:42:31.073Z,18.17
2018-05-24T15:44:58.526Z,18.73
2018-05-24T15:47:25.955Z,18.50
2018-05-24T15:49:54.170Z,19.80
2018-05-24T15:52:21.627Z,17.87
2018-05-24T15:54:49.108Z,17.57
2018-05-24T15:57:16.573Z,15.17
2018-05-24T15:59:44.003Z,14.30
2018-05-24T16:02:11.455Z,13.43
2018-05-24T16:04:38.916Z,14.57
2018-05-24T16:07:06.348Z,12.53
2018-05-24T16:09:33.800Z,12.70
2018-05-24T16:12:01.232Z,12.83
2018-05-24T16:14:28.724Z,13.57
2018-05-24T16:16:56.181Z,12.23
2018-05-24T16:19:23.659Z,13.27
2018-05-24T16:21:51.108Z,11.70
2018-05-24T16:24:18.559Z,12.80
2018-05-24T16:26:45.980Z,17.10
2018-05-24T16:29:13.437Z,12.10
2018-05-24T16:31:40.886Z,12.07
2018-05-24T16:34:08.321Z,11.83
2018-05-24T16:36:35.779Z,12.00
2018-05-24T16:39:03.222Z,12.43
2018-05-24T16:41:30.704Z,11.40
2018-05-24T16:43:58.142Z,10.50
2018-05-24T16:46:25.575Z,11.07
2018-05-24T16:48:53.032Z,10.97
2018-05-24T16:51:20.462Z,12.20
2018-05-24T16:53:48.675Z,13.53
2018-05-24T16:56:16.106Z,14.13
2018-05-24T16:58:43.550Z,13.53
2018-05-24T17:01:10.984Z,12.47
2018-05-24T17:03:38.451Z,12.73
2018-05-24T17:06:06.662Z,14.00
2018-05-24T17:08:34.125Z,13.83
2018-05-24T17:11:01.552Z,14.87
2018-05-24T17:13:29.779Z,15.50
2018-05-24T17:15:57.212Z,14.87
2018-05-24T17:18:24.665Z,14.67
2018-05-24T17:20:52.179Z,15.67
2018-05-24T17:23:19.638Z,15.57
2018-05-24T17:25:47.090Z,20.87
2018-05-24T17:28:14.522Z,17.50
2018-05-24T17:30:41.945Z,19.13
2018-05-24T17:33:09.402Z,19.60
2018-05-24T17:35:36.838Z,18.10
2018-05-24T17:38:05.039Z,20.10
2018-05-24T17:40:32.482Z,18.07
2018-05-24T17:42:59.929Z,19.10
2018-05-24T17:45:28.134Z,17.40
2018-05-24T17:47:55.585Z,16.40
2018-05-24T17:50:23.008Z,17.17
2018-05-24T17:52:50.445Z,17.00
2018-05-24T17:55:17.898Z,18.37
2018-05-24T17:57:45.351Z,17.50
2018-05-24T18:00:12.784Z,16.10
2018-05-24T18:02:40.237Z,18.37
2018-05-24T18:05:07.666Z,18.93
2018-05-24T18:07:35.121Z,22.40
2018-05-24T18:10:02.547Z,20.97
2018-05-24T18:12:30.005Z,20.63
2018-05-24T18:14:58.251Z,21.03
2018-05-24T18:17:25.625Z,21.00
2018-05-24T18:19:53.074Z,19.23
2018-05-24T18:22:20.515Z,19.73
2018-05-24T18:24:47.990Z,18.40
2018-05-24T18:27:15.438Z,20.00
2018-05-24T18:29:42.861Z,18.00
2018-05-24T18:32:10.293Z,16.13
2018-05-24T18:34:37.738Z,16.10
2018-05-24T18:37:05.174Z,14.90
2018-05-24T18:39:32.621Z,15.57
2018-05-24T18:42:00.077Z,16.10
2018-05-24T18:44:27.521Z,18.23
2018-05-24T18:46:54.954Z,18.10
2018-05-24T18:49:22.494Z,18.40
2018-05-24T18:51:50.707Z,17.50
2018-05-24T18:54:18.150Z,19.70
2018-05-24T18:56:45.728Z,20.03
2018-05-24T18:59:13.162Z,23.67
2018-05-24T19:01:40.591Z,21.10
2018-05-24T19:04:08.034Z,20.97
2018-05-24T19:06:35.465Z,20.17
2018-05-24T19:09:02.919Z,19.93
2018-05-24T19:11:30.354Z,22.10
2018-05-24T19:13:57.794Z,22.27
2018-05-24T19:16:25.239Z,23.70
2018-05-24T19:18:53.455Z,22.53
2018-05-24T19:21:20.911Z,22.73
2018-05-24T19:23:48.371Z,25.63
2018-05-24T19:26:15.814Z,26.50
2018-05-24T19:28:43.257Z,27.60
2018-05-24T19:31:11.458Z,27.90
2018-05-24T19:33:38.899Z,24.40
2018-05-24T19:36:06.338Z,20.67
2018-05-24T19:38:33.779Z,25.40
2018-05-24T19:41:01.214Z,15.40
2018-05-24T19:43:28.658Z,12.63
2018-05-24T19:45:56.085Z,11.67
2018-05-24T19:48:23.611Z,11.30
2018-05-24T19:50:51.043Z,8.63
2018-05-24T19:53:18.485Z,9.80
2018-05-24T19:55:45.988Z,7.37
2018-05-24T19:58:13.376Z,8.50
2018-05-24T20:00:40.829Z,7.40
2018-05-24T20:03:08.247Z,6.53
2018-05-24T20:05:35.695Z,6.33
2018-05-24T20:08:03.123Z,4.70
2018-05-24T20:10:30.572Z,6.00
2018-05-24T20:12:58.042Z,4.80
2018-05-24T20:15:25.638Z,5.80
2018-05-24T20:17:53.074Z,5.20
2018-05-24T20:20:20.522Z,5.13
2018-05-24T20:22:48.025Z,5.27
2018-05-24T20:25:15.385Z,5.63
2018-05-24T20:27:43.597Z,4.40
2018-05-24T20:30:11.048Z,3.50
2018-05-24T20:32:38.565Z,4.07
2018-05-24T20:35:05.978Z,4.57
2018-05-24T20:37:33.414Z,4.90
2018-05-24T20:40:00.867Z,5.00
2018-05-24T20:42:28.314Z,6.30
2018-05-24T20:44:55.763Z,7.67
2018-05-24T20:47:23.195Z,8.53
2018-05-24T20:49:50.653Z,7.83
2018-05-24T20:52:18.145Z,9.07
2018-05-24T20:54:45.596Z,8.10
2018-05-24T20:57:13.043Z,8.30
2018-05-24T20:59:40.490Z,7.10
2018-05-24T21:02:08.698Z,6.73
2018-05-24T21:04:36.169Z,7.77
2018-05-24T21:07:03.624Z,9.60
2018-05-24T21:09:31.080Z,10.17
2018-05-24T21:11:58.533Z,9.17
2018-05-24T21:14:25.998Z,10.00
2018-05-24T21:16:53.437Z,9.97
2018-05-24T21:19:20.885Z,8.00
2018-05-24T21:21:49.239Z,7.63
2018-05-24T21:24:16.763Z,7.67
2018-05-24T21:26:44.246Z,8.93
2018-05-24T21:29:11.691Z,9.20
2018-05-24T21:31:39.147Z,8.13
2018-05-24T21:34:06.589Z,9.20
2018-05-24T21:36:34.655Z,7.00
2018-05-24T21:39:02.111Z,10.10
2018-05-24T21:41:29.571Z,10.80
2018-05-24T21:43:57.240Z,10.37
2018-05-24T21:46:24.710Z,11.57
2018-05-24T21:48:52.163Z,12.40
2018-05-24T21:51:19.640Z,13.23
2018-05-24T21:53:47.078Z,12.60
2018-05-24T21:56:14.538Z,12.50
2018-05-24T21:58:41.994Z,15.90
2018-05-24T22:01:09.457Z,9.63
2018-05-24T22:03:36.907Z,9.50
2018-05-24T22:06:04.346Z,9.50
2018-05-24T22:08:31.806Z,9.03
2018-05-24T22:10:59.340Z,8.73
2018-05-24T22:13:26.723Z,9.60
2018-05-24T22:15:54.176Z,7.87
2018-05-24T22:18:21.635Z,6.13
2018-05-24T22:20:49.082Z,8.03
2018-05-24T22:23:16.541Z,7.20
2018-05-24T22:25:44.008Z,6.20
2018-05-24T22:28:11.456Z,5.97
2018-05-24T22:30:38.913Z,6.20
2018-05-24T22:33:06.369Z,6.40
2018-05-24T22:35:33.827Z,4.40
2018-05-24T22:38:01.293Z,5.87
2018-05-24T22:40:28.713Z,5.43
2018-05-24T22:42:56.163Z,5.80
2018-05-24T22:45:23.602Z,4.70
2018-05-24T22:47:51.069Z,5.17
2018-05-24T22:50:18.579Z,5.27
2018-05-24T22:52:46.039Z,5.47
2018-05-24T22:55:13.495Z,6.70
2018-05-24T22:57:40.971Z,5.33
2018-05-24T23:00:08.439Z,6.57
2018-05-24T23:02:35.890Z,7.13
2018-05-24T23:05:03.331Z,4.73
2018-05-24T23:07:30.806Z,6.60
2018-05-24T23:09:58.241Z,5.37
2018-05-24T23:12:25.717Z,5.77
2018-05-24T23:14:53.146Z,5.20
2018-05-24T23:17:20.612Z,7.07
2018-05-24T23:19:48.058Z,6.70
2018-05-24T23:22:27.416Z,7.07
2018-05-24T23:24:54.854Z,5.57
2018-05-24T23:27:22.309Z,4.00
2018-05-24T23:29:49.762Z,6.70
2018-05-24T23:32:17.294Z,4.40
2018-05-24T23:34:44.747Z,4.57
2018-05-24T23:37:12.198Z,4.90
2018-05-24T23:39:39.663Z,5.30
2018-05-24T23:42:07.095Z,5.10
2018-05-24T23:44:34.534Z,6.23
2018-05-24T23:47:01.986Z,5.47
2018-05-24T23:49:29.418Z,5.30
2018-05-24T23:51:56.850Z,4.77
2018-05-24T23:54:24.384Z,4.60
2018-05-24T23:56:51.818Z,4.87
2018-05-24T23:59:19.271Z,4.90
